sensor_id;sensor_type;location;lat;lon;timestamp;temperature;humidity
79024;DHT22;70306;44.764;37.688;2023-08-21T00:00:46;26.72;41.38
79024;DHT22;70306;44.764;37.688;2023-08-21T00:01:48;26.69;41.49
79024;DHT22;70306;44.764;37.688;2023-08-21T00:02:50;26.69;40.58
79024;DHT22;70306;44.764;37.688;2023-08-21T00:03:52;26.66;39.93
79024;DHT22;70306;44.764;37.688;2023-08-21T00:04:54;26.62;40.87
79024;DHT22;70306;44.764;37.688;2023-08-21T00:05:56;26.60;41.01
79024;DHT22;70306;44.764;37.688;2023-08-21T00:06:58;26.60;41.13
79024;DHT22;70306;44.764;37.688;2023-08-21T00:08:00;26.56;40.19
79024;DHT22;70306;44.764;37.688;2023-08-21T00:09:02;26.49;40.56
79024;DHT22;70306;44.764;37.688;2023-08-21T00:10:05;26.44;41.63
79024;DHT22;70306;44.764;37.688;2023-08-21T00:11:07;26.45;39.90
79024;DHT22;70306;44.764;37.688;2023-08-21T00:12:09;26.51;40.04
79024;DHT22;70306;44.764;37.688;2023-08-21T00:13:11;26.55;40.87
79024;DHT22;70306;44.764;37.688;2023-08-21T00:14:13;26.52;41.20
79024;DHT22;70306;44.764;37.688;2023-08-21T00:15:15;26.52;41.74
79024;DHT22;70306;44.764;37.688;2023-08-21T00:16:17;26.51;42.22
79024;DHT22;70306;44.764;37.688;2023-08-21T00:17:19;26.52;42.08
79024;DHT22;70306;44.764;37.688;2023-08-21T00:18:21;26.48;40.62
79024;DHT22;70306;44.764;37.688;2023-08-21T00:19:23;26.35;40.83
79024;DHT22;70306;44.764;37.688;2023-08-21T00:20:25;26.28;41.84
79024;DHT22;70306;44.764;37.688;2023-08-21T00:21:27;26.28;41.23
79024;DHT22;70306;44.764;37.688;2023-08-21T00:22:29;26.27;40.86
79024;DHT22;70306;44.764;37.688;2023-08-21T00:23:31;26.31;41.45
79024;DHT22;70306;44.764;37.688;2023-08-21T00:24:33;26.32;41.85
79024;DHT22;70306;44.764;37.688;2023-08-21T00:25:35;26.31;41.95
79024;DHT22;70306;44.764;37.688;2023-08-21T00:26:37;26.31;42.08
79024;DHT22;70306;44.764;37.688;2023-08-21T00:27:39;26.31;42.59
79024;DHT22;70306;44.764;37.688;2023-08-21T00:28:41;26.34;42.51
79024;DHT22;70306;44.764;37.688;2023-08-21T00:29:45;26.30;41.77
79024;DHT22;70306;44.764;37.688;2023-08-21T00:30:47;26.24;41.63
79024;DHT22;70306;44.764;37.688;2023-08-21T00:31:53;26.21;41.90
79024;DHT22;70306;44.764;37.688;2023-08-21T00:32:57;26.24;41.68
79024;DHT22;70306;44.764;37.688;2023-08-21T00:33:59;26.21;42.77
79024;DHT22;70306;44.764;37.688;2023-08-21T00:35:01;26.23;42.73
79024;DHT22;70306;44.764;37.688;2023-08-21T00:36:04;26.20;41.80
79024;DHT22;70306;44.764;37.688;2023-08-21T00:37:06;26.21;42.01
79024;DHT22;70306;44.764;37.688;2023-08-21T00:38:08;26.21;41.75
79024;DHT22;70306;44.764;37.688;2023-08-21T00:39:10;26.20;41.44
79024;DHT22;70306;44.764;37.688;2023-08-21T00:40:15;26.14;42.63
79024;DHT22;70306;44.764;37.688;2023-08-21T00:41:20;26.14;43.38
79024;DHT22;70306;44.764;37.688;2023-08-21T00:42:21;26.13;43.10
79024;DHT22;70306;44.764;37.688;2023-08-21T00:43:24;26.12;42.59
79024;DHT22;70306;44.764;37.688;2023-08-21T00:44:26;26.10;42.73
79024;DHT22;70306;44.764;37.688;2023-08-21T00:45:28;26.04;42.81
79024;DHT22;70306;44.764;37.688;2023-08-21T00:46:31;26.04;42.28
79024;DHT22;70306;44.764;37.688;2023-08-21T00:47:33;26.00;42.34
79024;DHT22;70306;44.764;37.688;2023-08-21T00:48:35;25.99;42.87
79024;DHT22;70306;44.764;37.688;2023-08-21T00:49:38;25.96;43.34
79024;DHT22;70306;44.764;37.688;2023-08-21T00:50:41;25.96;43.91
79024;DHT22;70306;44.764;37.688;2023-08-21T00:51:44;25.96;43.22
79024;DHT22;70306;44.764;37.688;2023-08-21T00:52:46;25.96;43.29
79024;DHT22;70306;44.764;37.688;2023-08-21T00:53:49;25.92;42.82
79024;DHT22;70306;44.764;37.688;2023-08-21T00:54:51;25.94;43.22
79024;DHT22;70306;44.764;37.688;2023-08-21T00:55:54;25.92;42.98
79024;DHT22;70306;44.764;37.688;2023-08-21T00:56:55;25.92;42.78
79024;DHT22;70306;44.764;37.688;2023-08-21T00:57:58;25.93;43.37
79024;DHT22;70306;44.764;37.688;2023-08-21T00:59:00;25.93;42.66
79024;DHT22;70306;44.764;37.688;2023-08-21T01:00:02;25.93;42.66
79024;DHT22;70306;44.764;37.688;2023-08-21T01:01:06;25.93;42.28
79024;DHT22;70306;44.764;37.688;2023-08-21T01:02:07;25.92;42.93
79024;DHT22;70306;44.764;37.688;2023-08-21T01:03:09;25.92;42.80
79024;DHT22;70306;44.764;37.688;2023-08-21T01:04:11;25.88;41.85
79024;DHT22;70306;44.764;37.688;2023-08-21T01:05:13;25.89;42.50
79024;DHT22;70306;44.764;37.688;2023-08-21T01:06:14;25.86;43.52
79024;DHT22;70306;44.764;37.688;2023-08-21T01:07:16;25.89;42.13
79024;DHT22;70306;44.764;37.688;2023-08-21T01:08:27;25.86;42.01
79024;DHT22;70306;44.764;37.688;2023-08-21T01:09:48;25.83;42.58
79024;DHT22;70306;44.764;37.688;2023-08-21T01:10:56;25.82;42.66
79024;DHT22;70306;44.764;37.688;2023-08-21T01:12:09;25.83;43.56
79024;DHT22;70306;44.764;37.688;2023-08-21T01:15:54;25.86;43.26
79024;DHT22;70306;44.764;37.688;2023-08-21T01:17:00;25.90;42.57
79024;DHT22;70306;44.764;37.688;2023-08-21T01:18:02;25.88;42.48
79024;DHT22;70306;44.764;37.688;2023-08-21T01:19:10;25.88;43.58
79024;DHT22;70306;44.764;37.688;2023-08-21T01:20:14;25.92;43.32
79024;DHT22;70306;44.764;37.688;2023-08-21T01:21:16;25.92;42.94
79024;DHT22;70306;44.764;37.688;2023-08-21T01:22:18;25.96;42.76
79024;DHT22;70306;44.764;37.688;2023-08-21T01:23:30;25.96;42.64
79024;DHT22;70306;44.764;37.688;2023-08-21T01:24:32;25.93;42.54
79024;DHT22;70306;44.764;37.688;2023-08-21T01:25:34;25.89;42.56
79024;DHT22;70306;44.764;37.688;2023-08-21T01:26:37;25.92;42.80
79024;DHT22;70306;44.764;37.688;2023-08-21T01:27:43;25.89;42.65
79024;DHT22;70306;44.764;37.688;2023-08-21T01:28:45;25.90;42.61
79024;DHT22;70306;44.764;37.688;2023-08-21T01:29:47;25.85;41.74
79024;DHT22;70306;44.764;37.688;2023-08-21T01:30:50;25.86;42.91
79024;DHT22;70306;44.764;37.688;2023-08-21T01:32:21;25.83;42.83
79024;DHT22;70306;44.764;37.688;2023-08-21T01:33:29;25.76;42.21
79024;DHT22;70306;44.764;37.688;2023-08-21T01:34:32;25.78;42.92
79024;DHT22;70306;44.764;37.688;2023-08-21T01:35:35;25.83;41.49
79024;DHT22;70306;44.764;37.688;2023-08-21T01:36:37;25.82;41.93
79024;DHT22;70306;44.764;37.688;2023-08-21T01:37:39;25.88;41.98
79024;DHT22;70306;44.764;37.688;2023-08-21T01:38:41;25.89;42.01
79024;DHT22;70306;44.764;37.688;2023-08-21T01:39:43;25.89;42.30
79024;DHT22;70306;44.764;37.688;2023-08-21T01:40:47;25.90;42.09
79024;DHT22;70306;44.764;37.688;2023-08-21T01:41:48;25.88;41.67
79024;DHT22;70306;44.764;37.688;2023-08-21T01:42:52;25.85;41.62
79024;DHT22;70306;44.764;37.688;2023-08-21T01:43:54;25.80;41.52
79024;DHT22;70306;44.764;37.688;2023-08-21T01:44:56;25.78;41.70
79024;DHT22;70306;44.764;37.688;2023-08-21T01:45:58;25.82;39.60
79024;DHT22;70306;44.764;37.688;2023-08-21T01:46:59;25.82;39.43
79024;DHT22;70306;44.764;37.688;2023-08-21T01:48:01;25.86;39.12
79024;DHT22;70306;44.764;37.688;2023-08-21T01:49:04;25.92;40.59
79024;DHT22;70306;44.764;37.688;2023-08-21T01:50:07;25.94;41.43
79024;DHT22;70306;44.764;37.688;2023-08-21T01:51:08;25.93;41.81
79024;DHT22;70306;44.764;37.688;2023-08-21T01:52:10;25.94;41.70
79024;DHT22;70306;44.764;37.688;2023-08-21T01:53:12;25.94;42.59
79024;DHT22;70306;44.764;37.688;2023-08-21T01:54:14;25.94;40.92
79024;DHT22;70306;44.764;37.688;2023-08-21T01:55:16;25.86;40.98
79024;DHT22;70306;44.764;37.688;2023-08-21T01:56:17;25.79;41.78
79024;DHT22;70306;44.764;37.688;2023-08-21T01:57:19;25.78;40.64
79024;DHT22;70306;44.764;37.688;2023-08-21T01:58:21;25.78;41.37
79024;DHT22;70306;44.764;37.688;2023-08-21T01:59:24;25.82;41.73
79024;DHT22;70306;44.764;37.688;2023-08-21T02:00:25;25.80;41.38
79024;DHT22;70306;44.764;37.688;2023-08-21T02:01:27;25.86;43.63
79024;DHT22;70306;44.764;37.688;2023-08-21T02:02:30;25.88;42.70
79024;DHT22;70306;44.764;37.688;2023-08-21T02:03:32;25.86;41.76
79024;DHT22;70306;44.764;37.688;2023-08-21T02:04:34;25.85;42.06
79024;DHT22;70306;44.764;37.688;2023-08-21T02:05:39;25.83;42.84
79024;DHT22;70306;44.764;37.688;2023-08-21T02:06:41;25.83;42.96
79024;DHT22;70306;44.764;37.688;2023-08-21T02:07:43;25.82;43.89
79024;DHT22;70306;44.764;37.688;2023-08-21T02:08:45;25.79;43.63
79024;DHT22;70306;44.764;37.688;2023-08-21T02:09:47;25.79;43.86
79024;DHT22;70306;44.764;37.688;2023-08-21T02:10:50;25.79;44.71
79024;DHT22;70306;44.764;37.688;2023-08-21T02:11:52;25.73;43.66
79024;DHT22;70306;44.764;37.688;2023-08-21T02:12:53;25.72;43.37
79024;DHT22;70306;44.764;37.688;2023-08-21T02:13:55;25.66;44.39
79024;DHT22;70306;44.764;37.688;2023-08-21T02:14:57;25.63;44.59
79024;DHT22;70306;44.764;37.688;2023-08-21T02:15:59;25.59;44.73
79024;DHT22;70306;44.764;37.688;2023-08-21T02:17:01;25.57;43.65
79024;DHT22;70306;44.764;37.688;2023-08-21T02:18:04;25.58;43.77
79024;DHT22;70306;44.764;37.688;2023-08-21T02:19:05;25.57;44.38
79024;DHT22;70306;44.764;37.688;2023-08-21T02:20:07;25.58;44.62
79024;DHT22;70306;44.764;37.688;2023-08-21T02:21:10;25.59;44.27
79024;DHT22;70306;44.764;37.688;2023-08-21T02:22:11;25.61;45.59
79024;DHT22;70306;44.764;37.688;2023-08-21T02:23:13;25.63;44.82
79024;DHT22;70306;44.764;37.688;2023-08-21T02:24:15;25.59;44.05
79024;DHT22;70306;44.764;37.688;2023-08-21T02:25:16;25.59;43.91
79024;DHT22;70306;44.764;37.688;2023-08-21T02:26:18;25.55;43.77
79024;DHT22;70306;44.764;37.688;2023-08-21T02:27:21;25.54;43.41
79024;DHT22;70306;44.764;37.688;2023-08-21T02:28:23;25.52;45.19
79024;DHT22;70306;44.764;37.688;2023-08-21T02:29:24;25.49;45.28
79024;DHT22;70306;44.764;37.688;2023-08-21T02:30:28;25.48;45.37
79024;DHT22;70306;44.764;37.688;2023-08-21T02:31:29;25.48;44.36
79024;DHT22;70306;44.764;37.688;2023-08-21T02:32:31;25.51;44.75
79024;DHT22;70306;44.764;37.688;2023-08-21T02:33:35;25.49;42.85
79024;DHT22;70306;44.764;37.688;2023-08-21T02:34:36;25.46;42.81
79024;DHT22;70306;44.764;37.688;2023-08-21T02:35:38;25.46;43.61
79024;DHT22;70306;44.764;37.688;2023-08-21T02:36:40;25.42;40.63
79024;DHT22;70306;44.764;37.688;2023-08-21T02:37:42;25.45;42.97
79024;DHT22;70306;44.764;37.688;2023-08-21T02:38:43;25.46;44.03
79024;DHT22;70306;44.764;37.688;2023-08-21T02:39:45;25.46;44.04
79024;DHT22;70306;44.764;37.688;2023-08-21T02:40:47;25.49;43.81
79024;DHT22;70306;44.764;37.688;2023-08-21T02:41:49;25.49;43.81
79024;DHT22;70306;44.764;37.688;2023-08-21T02:42:50;25.48;44.02
79024;DHT22;70306;44.764;37.688;2023-08-21T02:43:52;25.44;42.39
79024;DHT22;70306;44.764;37.688;2023-08-21T02:44:53;25.37;42.16
79024;DHT22;70306;44.764;37.688;2023-08-21T02:45:55;25.37;41.36
79024;DHT22;70306;44.764;37.688;2023-08-21T02:46:57;25.37;42.77
79024;DHT22;70306;44.764;37.688;2023-08-21T02:47:59;25.38;42.06
79024;DHT22;70306;44.764;37.688;2023-08-21T02:49:00;25.41;41.74
79024;DHT22;70306;44.764;37.688;2023-08-21T02:50:04;25.44;42.73
79024;DHT22;70306;44.764;37.688;2023-08-21T02:51:06;25.45;44.21
79024;DHT22;70306;44.764;37.688;2023-08-21T02:52:08;25.49;43.35
79024;DHT22;70306;44.764;37.688;2023-08-21T02:53:10;25.51;44.03
79024;DHT22;70306;44.764;37.688;2023-08-21T02:54:11;25.46;43.55
79024;DHT22;70306;44.764;37.688;2023-08-21T02:55:13;25.42;43.23
79024;DHT22;70306;44.764;37.688;2023-08-21T02:56:15;25.41;43.76
79024;DHT22;70306;44.764;37.688;2023-08-21T02:57:17;25.44;44.59
79024;DHT22;70306;44.764;37.688;2023-08-21T02:58:18;25.46;43.56
79024;DHT22;70306;44.764;37.688;2023-08-21T02:59:20;25.48;41.52
79024;DHT22;70306;44.764;37.688;2023-08-21T03:00:22;25.52;41.87
79024;DHT22;70306;44.764;37.688;2023-08-21T03:01:24;25.51;43.04
79024;DHT22;70306;44.764;37.688;2023-08-21T03:02:26;25.49;42.23
79024;DHT22;70306;44.764;37.688;2023-08-21T03:03:27;25.51;42.90
79024;DHT22;70306;44.764;37.688;2023-08-21T03:04:29;25.55;42.15
79024;DHT22;70306;44.764;37.688;2023-08-21T03:05:31;25.58;44.20
79024;DHT22;70306;44.764;37.688;2023-08-21T03:06:32;25.61;43.23
79024;DHT22;70306;44.764;37.688;2023-08-21T03:07:35;25.63;42.32
79024;DHT22;70306;44.764;37.688;2023-08-21T03:08:38;25.65;41.72
79024;DHT22;70306;44.764;37.688;2023-08-21T03:09:40;25.69;42.70
79024;DHT22;70306;44.764;37.688;2023-08-21T03:10:42;25.71;42.06
79024;DHT22;70306;44.764;37.688;2023-08-21T03:11:43;25.72;42.75
79024;DHT22;70306;44.764;37.688;2023-08-21T03:12:45;25.78;43.48
79024;DHT22;70306;44.764;37.688;2023-08-21T03:13:47;25.78;42.95
79024;DHT22;70306;44.764;37.688;2023-08-21T03:14:48;25.79;42.10
79024;DHT22;70306;44.764;37.688;2023-08-21T03:15:50;25.73;41.77
79024;DHT22;70306;44.764;37.688;2023-08-21T03:16:52;25.68;39.26
79024;DHT22;70306;44.764;37.688;2023-08-21T03:17:54;25.72;38.69
79024;DHT22;70306;44.764;37.688;2023-08-21T03:18:59;25.83;42.25
79024;DHT22;70306;44.764;37.688;2023-08-21T03:20:04;25.90;43.10
79024;DHT22;70306;44.764;37.688;2023-08-21T03:21:09;25.90;42.58
79024;DHT22;70306;44.764;37.688;2023-08-21T03:22:11;25.92;43.26
79024;DHT22;70306;44.764;37.688;2023-08-21T03:23:13;25.96;42.40
79024;DHT22;70306;44.764;37.688;2023-08-21T03:24:16;25.97;42.76
79024;DHT22;70306;44.764;37.688;2023-08-21T03:25:20;26.00;41.70
79024;DHT22;70306;44.764;37.688;2023-08-21T03:26:23;26.03;41.45
79024;DHT22;70306;44.764;37.688;2023-08-21T03:27:25;26.04;41.16
79024;DHT22;70306;44.764;37.688;2023-08-21T03:28:26;26.10;41.32
79024;DHT22;70306;44.764;37.688;2023-08-21T03:29:28;26.14;41.16
79024;DHT22;70306;44.764;37.688;2023-08-21T03:30:30;26.17;40.36
79024;DHT22;70306;44.764;37.688;2023-08-21T03:31:31;26.24;39.60
79024;DHT22;70306;44.764;37.688;2023-08-21T03:32:33;26.32;40.65
79024;DHT22;70306;44.764;37.688;2023-08-21T03:33:36;26.37;41.27
79024;DHT22;70306;44.764;37.688;2023-08-21T03:34:37;26.38;38.81
79024;DHT22;70306;44.764;37.688;2023-08-21T03:35:40;26.48;38.80
79024;DHT22;70306;44.764;37.688;2023-08-21T03:36:42;26.58;39.92
79024;DHT22;70306;44.764;37.688;2023-08-21T03:37:43;26.62;40.58
79024;DHT22;70306;44.764;37.688;2023-08-21T03:38:48;26.65;38.40
79024;DHT22;70306;44.764;37.688;2023-08-21T03:39:49;26.72;38.66
79024;DHT22;70306;44.764;37.688;2023-08-21T03:40:51;26.76;38.99
79024;DHT22;70306;44.764;37.688;2023-08-21T03:41:53;26.85;38.27
79024;DHT22;70306;44.764;37.688;2023-08-21T03:42:55;26.92;38.24
79024;DHT22;70306;44.764;37.688;2023-08-21T03:43:56;26.97;38.72
79024;DHT22;70306;44.764;37.688;2023-08-21T03:44:58;27.02;37.02
79024;DHT22;70306;44.764;37.688;2023-08-21T03:46:00;27.10;37.46
79024;DHT22;70306;44.764;37.688;2023-08-21T03:47:01;27.18;39.09
79024;DHT22;70306;44.764;37.688;2023-08-21T03:48:07;27.23;39.02
79024;DHT22;70306;44.764;37.688;2023-08-21T03:49:09;27.30;38.34
79024;DHT22;70306;44.764;37.688;2023-08-21T03:50:11;27.37;36.97
79024;DHT22;70306;44.764;37.688;2023-08-21T03:51:12;27.45;36.80
79024;DHT22;70306;44.764;37.688;2023-08-21T03:52:14;27.54;37.49
79024;DHT22;70306;44.764;37.688;2023-08-21T03:53:17;27.56;37.28
79024;DHT22;70306;44.764;37.688;2023-08-21T03:54:21;27.63;36.90
79024;DHT22;70306;44.764;37.688;2023-08-21T03:55:23;27.69;38.39
79024;DHT22;70306;44.764;37.688;2023-08-21T03:56:25;27.73;38.78
79024;DHT22;70306;44.764;37.688;2023-08-21T03:57:26;27.78;38.58
79024;DHT22;70306;44.764;37.688;2023-08-21T03:58:28;27.79;37.19
79024;DHT22;70306;44.764;37.688;2023-08-21T03:59:30;27.83;37.46
79024;DHT22;70306;44.764;37.688;2023-08-21T04:00:32;27.88;36.58
79024;DHT22;70306;44.764;37.688;2023-08-21T04:01:33;27.93;36.75
79024;DHT22;70306;44.764;37.688;2023-08-21T04:02:35;27.99;35.61
79024;DHT22;70306;44.764;37.688;2023-08-21T04:03:37;28.06;35.26
79024;DHT22;70306;44.764;37.688;2023-08-21T04:04:38;28.14;35.37
79024;DHT22;70306;44.764;37.688;2023-08-21T04:05:40;28.21;35.23
79024;DHT22;70306;44.764;37.688;2023-08-21T04:06:41;28.27;34.86
79024;DHT22;70306;44.764;37.688;2023-08-21T04:07:43;28.34;36.04
79024;DHT22;70306;44.764;37.688;2023-08-21T04:08:45;28.41;35.05
79024;DHT22;70306;44.764;37.688;2023-08-21T04:09:47;28.42;35.93
79024;DHT22;70306;44.764;37.688;2023-08-21T04:10:48;28.47;35.40
79024;DHT22;70306;44.764;37.688;2023-08-21T04:11:50;28.49;35.94
79024;DHT22;70306;44.764;37.688;2023-08-21T04:12:52;28.53;38.72
79024;DHT22;70306;44.764;37.688;2023-08-21T04:13:54;28.56;38.37
79024;DHT22;70306;44.764;37.688;2023-08-21T04:14:55;28.58;35.99
79024;DHT22;70306;44.764;37.688;2023-08-21T04:15:57;28.62;35.27
79024;DHT22;70306;44.764;37.688;2023-08-21T04:16:59;28.69;35.05
79024;DHT22;70306;44.764;37.688;2023-08-21T04:18:00;28.70;35.62
79024;DHT22;70306;44.764;37.688;2023-08-21T04:19:02;28.77;34.76
79024;DHT22;70306;44.764;37.688;2023-08-21T04:20:05;28.83;35.42
79024;DHT22;70306;44.764;37.688;2023-08-21T04:21:07;28.87;36.34
79024;DHT22;70306;44.764;37.688;2023-08-21T04:22:09;28.87;37.07
79024;DHT22;70306;44.764;37.688;2023-08-21T04:23:10;28.92;37.35
79024;DHT22;70306;44.764;37.688;2023-08-21T04:24:12;28.97;36.44
79024;DHT22;70306;44.764;37.688;2023-08-21T04:25:14;28.99;34.84
79024;DHT22;70306;44.764;37.688;2023-08-21T04:26:15;29.06;33.91
79024;DHT22;70306;44.764;37.688;2023-08-21T04:27:17;29.12;33.72
79024;DHT22;70306;44.764;37.688;2023-08-21T04:28:19;29.18;35.17
79024;DHT22;70306;44.764;37.688;2023-08-21T04:29:21;29.22;34.09
79024;DHT22;70306;44.764;37.688;2023-08-21T04:30:23;29.28;33.42
79024;DHT22;70306;44.764;37.688;2023-08-21T04:31:24;29.34;33.30
79024;DHT22;70306;44.764;37.688;2023-08-21T04:32:27;29.39;33.44
79024;DHT22;70306;44.764;37.688;2023-08-21T04:33:29;29.44;33.00
79024;DHT22;70306;44.764;37.688;2023-08-21T04:34:34;29.49;33.14
79024;DHT22;70306;44.764;37.688;2023-08-21T04:35:39;29.58;33.85
79024;DHT22;70306;44.764;37.688;2023-08-21T04:36:41;29.62;32.60
79024;DHT22;70306;44.764;37.688;2023-08-21T04:37:46;29.66;32.84
79024;DHT22;70306;44.764;37.688;2023-08-21T04:38:50;29.72;32.62
79024;DHT22;70306;44.764;37.688;2023-08-21T04:39:52;29.72;31.71
79024;DHT22;70306;44.764;37.688;2023-08-21T04:40:54;29.70;32.14
79024;DHT22;70306;44.764;37.688;2023-08-21T04:41:56;29.73;32.38
79024;DHT22;70306;44.764;37.688;2023-08-21T04:42:58;29.79;31.92
79024;DHT22;70306;44.764;37.688;2023-08-21T04:43:59;29.83;31.85
79024;DHT22;70306;44.764;37.688;2023-08-21T04:45:02;29.82;32.21
79024;DHT22;70306;44.764;37.688;2023-08-21T04:46:06;29.84;32.02
79024;DHT22;70306;44.764;37.688;2023-08-21T04:47:26;29.91;32.35
79024;DHT22;70306;44.764;37.688;2023-08-21T04:48:31;29.93;31.87
79024;DHT22;70306;44.764;37.688;2023-08-21T04:49:32;29.97;31.43
79024;DHT22;70306;44.764;37.688;2023-08-21T04:50:34;29.97;31.77
79024;DHT22;70306;44.764;37.688;2023-08-21T04:51:36;30.03;31.57
79024;DHT22;70306;44.764;37.688;2023-08-21T04:52:39;30.06;31.54
79024;DHT22;70306;44.764;37.688;2023-08-21T04:53:40;30.10;32.28
79024;DHT22;70306;44.764;37.688;2023-08-21T04:54:50;30.20;31.56
79024;DHT22;70306;44.764;37.688;2023-08-21T04:55:51;30.21;31.87
79024;DHT22;70306;44.764;37.688;2023-08-21T04:56:53;30.21;31.32
79024;DHT22;70306;44.764;37.688;2023-08-21T04:57:55;30.25;31.09
79024;DHT22;70306;44.764;37.688;2023-08-21T04:58:58;30.29;31.23
79024;DHT22;70306;44.764;37.688;2023-08-21T05:00:02;30.31;31.56
79024;DHT22;70306;44.764;37.688;2023-08-21T05:01:10;30.32;31.74
79024;DHT22;70306;44.764;37.688;2023-08-21T05:02:17;30.36;31.58
79024;DHT22;70306;44.764;37.688;2023-08-21T05:03:18;30.39;31.77
79024;DHT22;70306;44.764;37.688;2023-08-21T05:04:20;30.48;30.99
79024;DHT22;70306;44.764;37.688;2023-08-21T05:05:24;30.52;30.85
79024;DHT22;70306;44.764;37.688;2023-08-21T05:06:27;30.53;31.28
79024;DHT22;70306;44.764;37.688;2023-08-21T05:07:29;30.59;31.13
79024;DHT22;70306;44.764;37.688;2023-08-21T05:08:31;30.62;31.39
79024;DHT22;70306;44.764;37.688;2023-08-21T05:09:33;30.69;31.82
79024;DHT22;70306;44.764;37.688;2023-08-21T05:10:35;30.76;31.10
79024;DHT22;70306;44.764;37.688;2023-08-21T05:11:36;30.84;31.03
79024;DHT22;70306;44.764;37.688;2023-08-21T05:12:38;30.93;30.73
79024;DHT22;70306;44.764;37.688;2023-08-21T05:13:40;30.96;30.49
79024;DHT22;70306;44.764;37.688;2023-08-21T05:14:44;30.97;29.85
79024;DHT22;70306;44.764;37.688;2023-08-21T05:15:52;30.98;30.54
79024;DHT22;70306;44.764;37.688;2023-08-21T05:16:54;31.03;30.60
79024;DHT22;70306;44.764;37.688;2023-08-21T05:17:56;31.04;30.89
79024;DHT22;70306;44.764;37.688;2023-08-21T05:18:58;31.12;30.05
79024;DHT22;70306;44.764;37.688;2023-08-21T05:20:00;31.17;30.04
79024;DHT22;70306;44.764;37.688;2023-08-21T05:21:01;31.20;32.55
79024;DHT22;70306;44.764;37.688;2023-08-21T05:22:04;31.28;31.15
79024;DHT22;70306;44.764;37.688;2023-08-21T05:23:07;31.34;30.22
79024;DHT22;70306;44.764;37.688;2023-08-21T05:24:09;31.41;30.32
79024;DHT22;70306;44.764;37.688;2023-08-21T05:25:16;31.48;30.28
79024;DHT22;70306;44.764;37.688;2023-08-21T05:26:19;31.55;30.27
79024;DHT22;70306;44.764;37.688;2023-08-21T05:27:21;31.61;30.60
79024;DHT22;70306;44.764;37.688;2023-08-21T05:28:23;31.65;30.59
79024;DHT22;70306;44.764;37.688;2023-08-21T05:29:24;31.72;30.02
79024;DHT22;70306;44.764;37.688;2023-08-21T05:30:26;31.73;29.85
79024;DHT22;70306;44.764;37.688;2023-08-21T05:31:28;31.79;29.98
79024;DHT22;70306;44.764;37.688;2023-08-21T05:32:30;31.80;29.82
79024;DHT22;70306;44.764;37.688;2023-08-21T05:33:32;31.84;29.09
79024;DHT22;70306;44.764;37.688;2023-08-21T05:34:33;31.86;30.02
79024;DHT22;70306;44.764;37.688;2023-08-21T05:35:36;31.91;30.47
79024;DHT22;70306;44.764;37.688;2023-08-21T05:36:38;31.96;30.93
79024;DHT22;70306;44.764;37.688;2023-08-21T05:37:40;32.00;30.79
79024;DHT22;70306;44.764;37.688;2023-08-21T05:38:42;32.03;30.77
79024;DHT22;70306;44.764;37.688;2023-08-21T05:39:44;32.04;30.70
79024;DHT22;70306;44.764;37.688;2023-08-21T05:40:46;32.06;30.08
79024;DHT22;70306;44.764;37.688;2023-08-21T05:41:49;32.14;30.61
79024;DHT22;70306;44.764;37.688;2023-08-21T05:42:51;32.20;29.78
79024;DHT22;70306;44.764;37.688;2023-08-21T05:43:53;32.25;29.84
79024;DHT22;70306;44.764;37.688;2023-08-21T05:44:58;32.34;29.85
79024;DHT22;70306;44.764;37.688;2023-08-21T05:46:05;32.38;30.29
79024;DHT22;70306;44.764;37.688;2023-08-21T05:47:07;32.43;29.28
79024;DHT22;70306;44.764;37.688;2023-08-21T05:48:09;32.43;30.42
79024;DHT22;70306;44.764;37.688;2023-08-21T05:49:10;32.46;29.60
79024;DHT22;70306;44.764;37.688;2023-08-21T05:50:12;32.51;29.14
79024;DHT22;70306;44.764;37.688;2023-08-21T05:51:14;32.56;29.37
79024;DHT22;70306;44.764;37.688;2023-08-21T05:52:16;32.63;29.85
79024;DHT22;70306;44.764;37.688;2023-08-21T05:53:17;32.69;28.56
79024;DHT22;70306;44.764;37.688;2023-08-21T05:54:19;32.63;28.41
79024;DHT22;70306;44.764;37.688;2023-08-21T05:55:22;32.60;28.34
79024;DHT22;70306;44.764;37.688;2023-08-21T05:56:23;32.65;28.67
79024;DHT22;70306;44.764;37.688;2023-08-21T05:57:27;32.70;28.88
79024;DHT22;70306;44.764;37.688;2023-08-21T05:58:28;32.73;28.67
79024;DHT22;70306;44.764;37.688;2023-08-21T05:59:34;32.80;29.90
79024;DHT22;70306;44.764;37.688;2023-08-21T06:00:38;32.83;29.06
79024;DHT22;70306;44.764;37.688;2023-08-21T06:01:40;32.88;28.68
79024;DHT22;70306;44.764;37.688;2023-08-21T06:02:42;32.91;29.29
79024;DHT22;70306;44.764;37.688;2023-08-21T06:03:49;32.99;29.26
79024;DHT22;70306;44.764;37.688;2023-08-21T06:05:14;33.00;28.41
79024;DHT22;70306;44.764;37.688;2023-08-21T06:06:16;33.04;28.40
79024;DHT22;70306;44.764;37.688;2023-08-21T06:07:18;33.12;28.60
79024;DHT22;70306;44.764;37.688;2023-08-21T06:08:19;33.18;27.44
79024;DHT22;70306;44.764;37.688;2023-08-21T06:09:22;33.24;27.85
79024;DHT22;70306;44.764;37.688;2023-08-21T06:10:23;33.27;27.86
79024;DHT22;70306;44.764;37.688;2023-08-21T06:11:25;33.31;27.80
79024;DHT22;70306;44.764;37.688;2023-08-21T06:12:27;33.39;26.99
79024;DHT22;70306;44.764;37.688;2023-08-21T06:13:31;33.39;27.05
79024;DHT22;70306;44.764;37.688;2023-08-21T06:14:32;33.42;27.71
79024;DHT22;70306;44.764;37.688;2023-08-21T06:15:35;33.48;27.47
79024;DHT22;70306;44.764;37.688;2023-08-21T06:16:37;33.55;27.25
79024;DHT22;70306;44.764;37.688;2023-08-21T06:17:39;33.58;27.42
79024;DHT22;70306;44.764;37.688;2023-08-21T06:18:42;33.63;27.21
79024;DHT22;70306;44.764;37.688;2023-08-21T06:19:43;33.68;28.82
79024;DHT22;70306;44.764;37.688;2023-08-21T06:20:45;33.69;27.12
79024;DHT22;70306;44.764;37.688;2023-08-21T06:21:47;33.70;26.50
79024;DHT22;70306;44.764;37.688;2023-08-21T06:22:49;33.73;27.19
79024;DHT22;70306;44.764;37.688;2023-08-21T06:23:50;33.77;27.65
79024;DHT22;70306;44.764;37.688;2023-08-21T06:24:52;33.81;26.94
79024;DHT22;70306;44.764;37.688;2023-08-21T06:25:55;33.85;26.97
79024;DHT22;70306;44.764;37.688;2023-08-21T06:26:57;33.92;27.48
79024;DHT22;70306;44.764;37.688;2023-08-21T06:27:59;33.94;27.55
79024;DHT22;70306;44.764;37.688;2023-08-21T06:29:01;33.92;27.21
79024;DHT22;70306;44.764;37.688;2023-08-21T06:30:03;33.87;26.24
79024;DHT22;70306;44.764;37.688;2023-08-21T06:31:05;33.83;26.16
79024;DHT22;70306;44.764;37.688;2023-08-21T06:32:09;33.83;26.43